Kemah, Texas
Current Conditions -  °F | °C
As of 4:50 PM on Saturday 22 Nov 2014 (Local Time) from KEFD Reporting Station
Haze Haze  
Wind Chill: 66°   Ceiling: 8000
Heat Index: 66°   Visibility: 6mi
Dew Point: 64°   Wind: 9mph
Humidity: 94%   Direction: 90°E
Pressure: 29.85"   Gusts: NA
Location:  29.54°N, 95.02°W
Report Text: KEFD 222250Z 09008KT 6SM BR SCT020 OVC080 19/18 A2985
Loading
Personal Weather Stations






























Interactive Weather Map New forecast layout! Learn more

10-Day Weather Forecast

Advertisements
Track Severe Weather on mobile